Impacts TAF Board INFO
IDs:

KSEA - Seattle-Tacoma Intl, WA, US

Issued at 1417 UTC 07 Dec 2016
Updated at 1423 UTC 07 Dec 2016
Potential Impact None Slight Moderate High
Time1353Z 07/15Z 07/16Z 07/17Z 07/18Z 07/19Z 07/20Z 07/21Z 07/22Z 07/23Z 08/00Z 08/01Z 08/02Z 08/03Z
Type OBS PRVL PRVL PRVL PRVL PRVL PRVL PRVL PRVL PRVL PRVL PRVL PRVL PRVL
VIS 10 >6 >6 >6 >6 >6 >6 >6 >6 >6 >6 >6 >6 >6
CIG -- -- -- -- -- -- -- -- -- -- -- -- -- --
Cover CLR FEW FEW FEW SKC SKC SKC SKC SKC SKC SKC SKC SKC SKC
FltCat VFR VFR VFR VFR VFR VFR VFR VFR VFR VFR VFR VFR VFR VFR
WX -- -- -- -- -- -- -- -- -- -- -- -- -- --
WDir 10 40 40 40 40 40 40 40 40 40 40 40 40 70
WSpd 10 8 8 8 10 10 10 10 10 10 10 10 10 14
WGst -- -- -- -- -- -- -- -- -- -- -- -- -- 22

Raw TAF
KSEA 071417Z 0714/0818 04008KT P6SM FEW070
  FM071800 04010KT P6SM SKC
  FM080300 07014G22KT P6SM SKC
  FM081200 05012KT P6SM SKC


Raw METAR
KSEA 071353Z 01010KT 10SM CLR M02/M06 A3042 RMK AO2 SLP311 T10171056 $
KSEA 071253Z 03008KT 10SM FEW070 M01/M06 A3041 RMK AO2 SLP307 T10111056
KSEA 071153Z 03007KT 10SM FEW065 SCT250 M01/M06 A3041 RMK AO2 SLP308 T10061056 10017 21011 51014

METAR Board
Radar Display
Forecast Discussion